Nearby METAR Reports

 

KISP - Islip, New York, USA
Distance from station: SW 4mi, 6km
Updated: Sat, 01/16/2021 1:56 am EST
Overcast
Overcast
 Wind from E
Wind: E 16 mph , 26 km/h, Gust: 25 mph , 41 km/h
Temperature: 45°F , 7°C
Wind Chill: 38°F , 3°C
Dew Point: 45°F , 7°C
Humidity: 100%
Barometer: 29.70 inHg , 1005.8 hPa
Clouds: Overcast
Visibility: 10 miles , 16 km
Cloud details: Overcast 700 ft
2021/01/16 06:56 KISP 160656Z AUTO 08014G22KT 10SM OVC007 07/07 A2970 RMK AO2 PK WND 10026/0623 RAE49 CIG 006V012 SLP057 P0005 T00720067
KHWV - Shirley, New York, USA
Distance from station: E 10mi, 16km
Updated: Sat, 01/16/2021 1:56 am EST
Light rain, Overcast
Light rain, Overcast
 Wind from varies
Wind: varies 6 mph , 9 km/h
Temperature: 45°F , 7°C
Wind Chill: 42°F , 6°C
Dew Point: 43°F , 6°C
Humidity: 93%
Barometer: 29.72 inHg , 1006.4 hPa
Summary: Light rain
Clouds: Overcast
Visibility: 7 miles , 11 km
Cloud details: Mostly cloudy 800 ft
Overcast 1200 ft
2021/01/16 06:56 KHWV 160656Z AUTO VRB05KT 7SM -RA BKN008 OVC012 07/06 A2972 RMK AO2 SLP062 P0010 T00720056
 
KFRG - Farmingdale, New York, USA
Distance from station: WSW 20mi, 33km
Updated: Sat, 01/16/2021 1:53 am EST
Overcast
Overcast
 Wind from ENE
Wind: ENE 7 mph , 11 km/h
Temperature: 46°F , 8°C
Wind Chill: 42°F , 6°C
Dew Point: 43°F , 6°C
Humidity: 87%
Barometer: 29.70 inHg , 1005.8 hPa
Clouds: Overcast
Visibility: 10 miles , 16 km
Cloud details: Overcast 700 ft
2021/01/16 06:53 KFRG 160653Z 06006KT 10SM OVC007 08/06 A2970 RMK AO2 RAE26 SLP058 P0008 T00780061 $
KBDR - Bridgeport, Connecticut, USA
Distance from station: N 23mi, 37km
Updated: Sat, 01/16/2021 12:52 am EST
NOT Current
Rain, Mist, Overcast
Rain, Mist, Overcast
 Wind from E
Wind: E 28 mph , 44 km/h, Gust: 37 mph , 59 km/h
Temperature: 43°F , 6°C
Wind Chill: 33°F , 1°C
Dew Point: 37°F , 3°C
Humidity: 81%
Barometer: 29.78 inHg , 1008.5 hPa
Summary: Rain, Mist
Clouds: Overcast
Visibility: 5 miles , 8 km
Cloud details: Overcast 1200 ft
2021/01/16 05:52 KBDR 160552Z AUTO 08024G32KT 5SM RA BR OVC012 06/03 A2978 RMK AO2 PK WND 09032/0548 SLP082 P0002 60010 T00560033 10061 20056 58033
 
KFOK - Westhampton Beac, New York, USA
Distance from station: E 23mi, 37km
Updated: Sat, 01/16/2021 1:53 am EST
Heavy rain, Mist, Overcast
Heavy rain, Mist, Overcast
 Wind from E
Wind: E 13 mph , 20 km/h, Gust: 24 mph , 39 km/h
Temperature: 45°F , 7°C
Wind Chill: 39°F , 4°C
Dew Point: 43°F , 6°C
Humidity: 93%
Barometer: 29.71 inHg , 1006.1 hPa
Summary: Heavy rain, Mist
Clouds: Overcast
Visibility: 4 miles , 6 km
Cloud details: Overcast 600 ft
2021/01/16 06:53 KFOK 160653Z AUTO 08011G21KT 4SM +RA BR OVC006 07/06 A2971 RMK AO2 PRESFR SLP061 P0021 T00670056
KHVN - New Haven/Tweed, Connecticut, USA
Distance from station: NNE 31mi, 50km
Updated: Sat, 01/16/2021 1:53 am EST
Light rain, Mist, Overcast
Light rain, Mist, Overcast
 Wind from NE
Wind: NE 14 mph , 22 km/h
Temperature: 41°F , 5°C
Wind Chill: 33°F , 1°C
Dew Point: 37°F , 3°C
Humidity: 87%
Barometer: 29.74 inHg , 1007.1 hPa
Summary: Light rain, Mist
Clouds: Overcast
Visibility: 3 miles , 5 km
Cloud details: Overcast 1100 ft
2021/01/16 06:53 KHVN 160653Z AUTO 04012KT 3SM -RA BR OVC011 05/03 A2974 RMK AO2 RAE0559B29 PRESFR SLP072 P0004 T00500028
 
KHPN - White Plains, New York, USA
Distance from station: WNW 37mi, 60km
Updated: Sat, 01/16/2021 1:56 am EST
Overcast
Overcast
 Wind from E
Wind: E 15 mph , 24 km/h, Gust: 28 mph , 44 km/h
Temperature: 39°F , 4°C
Wind Chill: 31°F , -1°C
Dew Point: 37°F , 3°C
Humidity: 93%
Barometer: 29.68 inHg , 1005.1 hPa
Clouds: Overcast
Visibility: 10 miles , 16 km
Cloud details: Overcast 600 ft
2021/01/16 06:56 KHPN 160656Z 08013G24KT 10SM OVC006 04/03 A2968 RMK AO2 RAE00 SLP056 P0000 T00390033
KJFK - Nyc/Jfk Arpt, New York, USA
Distance from station: WSW 40mi, 64km
Updated: Sat, 01/16/2021 1:51 am EST
Light rain, Mist, Overcast
Light rain, Mist, Overcast
 Wind from E
Wind: E 20 mph , 31 km/h, Gust: 29 mph , 46 km/h
Temperature: 46°F , 8°C
Wind Chill: 38°F , 3°C
Dew Point: 43°F , 6°C
Humidity: 87%
Barometer: 29.65 inHg , 1004.1 hPa
Summary: Light rain, Mist
Clouds: Overcast
Visibility: 4 miles , 6 km
Cloud details: Overcast 800 ft
2021/01/16 06:51 KJFK 160651Z 08017G25KT 4SM -RA BR OVC008 08/06 A2965 RMK AO2 PK WND 06028/0640 RAB27 SLP039 P0001 T00780061 $
 
KDXR - Danbury, Connecticut, USA
Distance from station: NNW 42mi, 68km
Updated: Sat, 01/16/2021 1:53 am EST
Light rain, Overcast
Light rain, Overcast
 Wind from ENE
Wind: ENE 12 mph , 19 km/h
Temperature: 36°F , 2°C
Wind Chill: 28°F , -2°C
Dew Point: 34°F , 1°C
Humidity: 93%
Barometer: 29.74 inHg , 1007.1 hPa
Summary: Light rain
Clouds: Overcast
Visibility: 10 miles , 16 km
Cloud details: Overcast 900 ft
2021/01/16 06:53 KDXR 160653Z AUTO 07010KT 10SM -RA OVC009 02/01 A2974 RMK AO2 CIG 006V013 PRESFR SLP074 P0002 T00220011
KHTO - East Hampton, New York, USA
Distance from station: E 43mi, 69km
Updated: Sat, 01/16/2021 2:35 am EST
Rain, Overcast
Rain, Overcast
 Wind from E
Wind: E 16 mph , 26 km/h, Gust: 29 mph , 46 km/h
Temperature: 45°F , 7°C
Wind Chill: 38°F , 3°C
Dew Point: 43°F , 6°C
Humidity: 93%
Barometer: 29.70 inHg , 1005.8 hPa
Summary: Rain
Clouds: Overcast
Visibility: 4 miles , 6 km
Cloud details: Overcast 700 ft
2021/01/16 07:35 KHTO 160735Z AUTO 09014G25KT 4SM RA OVC007 07/06 A2970 RMK AO2 P0012 T00670062
 
KOXC - Oxford/Waterbury, Connecticut, USA
Distance from station: N 43mi, 70km
Updated: Sat, 01/16/2021 2:13 am EST
Light rain, Mist, Overcast
Light rain, Mist, Overcast
 Wind from NE
Wind: NE 12 mph , 19 km/h
Temperature: 34°F , 1°C
Wind Chill: 25°F , -4°C
Dew Point: 34°F , 1°C
Humidity: 100%
Barometer: 29.75 inHg , 1007.5 hPa
Summary: Light rain, Mist
Clouds: Overcast
Visibility: 6 miles , 10 km
Cloud details: Overcast 900 ft
2021/01/16 07:13 KOXC 160713Z AUTO 05010KT 6SM -RA BR OVC009 01/01 A2975 RMK AO2 CIG 006V013 P0003 FZRANO
KLGA - Nyc/La Guardia, New York, USA
Distance from station: W 44mi, 70km
Updated: Sat, 01/16/2021 2:13 am EST
Light rain, Mist, Overcast
Light rain, Mist, Overcast
 Wind from NE
Wind: NE 25 mph , 41 km/h, Gust: 31 mph , 50 km/h
Temperature: 43°F , 6°C
Wind Chill: 33°F , 1°C
Dew Point: 39°F , 4°C
Humidity: 87%
Barometer: 29.64 inHg , 1003.7 hPa
Summary: Light rain, Mist
Clouds: Overcast
Visibility: 6 miles , 10 km
Cloud details: Overcast 600 ft
2021/01/16 07:13 KLGA 160713Z 05022G27KT 6SM -RA BR OVC006 06/04 A2964 RMK AO2 PK WND 05028/0657 P0000 T00610039
 
KSNC - Chester, Connecticut, USA
Distance from station: NE 47mi, 76km
Updated: Sat, 01/16/2021 2:35 am EST
Rain, Overcast
Rain, Overcast
 Wind from ENE
Wind: ENE 8 mph , 13 km/h
Temperature: 37°F , 3°C
Wind Chill: 31°F , -1°C
Dew Point: 37°F , 3°C
Humidity: 100%
Barometer: 29.73 inHg , 1006.8 hPa
Summary: Rain
Clouds: Overcast
Visibility: 3 miles , 5 km
Cloud details: Partly cloudy 300 ft
Mostly cloudy 600 ft
Overcast 1300 ft
2021/01/16 07:35 KSNC 160735Z AUTO 06007KT 3SM RA SCT003 BKN006 OVC013 03/03 A2973 RMK AO2
KMMK - Meriden, Connecticut, USA
Distance from station: NNE 48mi, 77km
Updated: Sat, 01/16/2021 2:36 am EST
Light rain, Overcast
Light rain, Overcast
 Wind from N
Wind: N 9 mph , 15 km/h
Temperature: 36°F , 2°C
Wind Chill: 29°F , -2°C
Dew Point: 34°F , 1°C
Humidity: 93%
Barometer: 29.73 inHg , 1006.8 hPa
Summary: Light rain
Clouds: Overcast
Visibility: 8 miles , 13 km
Cloud details: Mostly cloudy 1400 ft
Overcast 1900 ft
2021/01/16 07:36 KMMK 160736Z AUTO 01008KT 330V030 8SM -RA BKN014 OVC019 02/01 A2973 RMK AO2 PRESFR P0009 T00220006
 
KNYC - Nyc/Central Park, New York, USA
Distance from station: W 48mi, 77km
Updated: Sat, 01/16/2021 2:21 am EST
Heavy rain, Mist, Overcast
Heavy rain, Mist, Overcast
 Wind from varies
Wind: varies 5 mph , 7 km/h, Gust: 22 mph , 35 km/h
Temperature: 43°F , 6°C
Wind Chill: 40°F , 4°C
Dew Point: 39°F , 4°C
Humidity: 87%
Barometer: 29.67 inHg , 1004.7 hPa
Summary: Heavy rain, Mist
Clouds: Overcast
Visibility: 1 3/4 miles , 2.8 km
Cloud details: Overcast 600 ft
2021/01/16 07:21 KNYC 160721Z AUTO VRB04G19KT 1 3/4SM +RA BR OVC006 06/04 A2967 RMK AO2 P0007 T00560044 $